createdAt,value
2018-04-01T00:02:13.513Z,94356
2018-04-01T00:04:41.844Z,94354
2018-04-01T00:07:11.406Z,94354
2018-04-01T00:09:41.204Z,94347
2018-04-01T00:12:09.486Z,94356
2018-04-01T00:14:38.120Z,94359
2018-04-01T00:17:06.386Z,94363
2018-04-01T00:19:34.692Z,94359
2018-04-01T00:22:03.243Z,94365
2018-04-01T00:24:32.952Z,94366
2018-04-01T00:27:01.300Z,94367
2018-04-01T00:29:29.729Z,94367
2018-04-01T00:31:57.997Z,94380
2018-04-01T00:34:26.992Z,94361
2018-04-01T00:36:55.599Z,94370
2018-04-01T00:39:24.739Z,94373
2018-04-01T00:41:54.861Z,94373
2018-04-01T00:44:23.972Z,94373
2018-04-01T00:46:52.252Z,94384
2018-04-01T00:49:20.521Z,94380
2018-04-01T00:51:48.818Z,94385
2018-04-01T00:54:17.114Z,94388
2018-04-01T00:56:45.387Z,94379
2018-04-01T00:59:13.687Z,94394
2018-04-01T01:01:41.951Z,94390
2018-04-01T01:04:10.274Z,94390
2018-04-01T01:06:38.556Z,94396
2018-04-01T01:09:06.869Z,94396
2018-04-01T01:11:35.138Z,94388
2018-04-01T01:14:03.456Z,94399
2018-04-01T01:16:32.532Z,94403
2018-04-01T01:19:00.790Z,94409
2018-04-01T01:21:29.104Z,94405
2018-04-01T01:23:58.134Z,94404
2018-04-01T01:26:26.459Z,94418
2018-04-01T01:28:55.510Z,94414
2018-04-01T01:31:23.836Z,94411
2018-04-01T01:33:52.906Z,94422
2018-04-01T01:36:21.171Z,94425
2018-04-01T01:38:50.609Z,94423
2018-04-01T01:41:19.643Z,94410
2018-04-01T01:43:47.972Z,94413
2018-04-01T01:46:16.995Z,94418
2018-04-01T01:48:45.265Z,94419
2018-04-01T01:51:13.591Z,94413
2018-04-01T01:53:41.864Z,94414
2018-04-01T01:56:10.139Z,94413
2018-04-01T01:58:38.458Z,94432
2018-04-01T02:01:07.531Z,94439
2018-04-01T02:03:35.786Z,94436
2018-04-01T02:06:04.084Z,94432
2018-04-01T02:08:32.384Z,94438
2018-04-01T02:11:00.652Z,94421
2018-04-01T02:13:28.939Z,94440
2018-04-01T02:15:57.211Z,94434
2018-04-01T02:18:25.519Z,94452
2018-04-01T02:20:53.796Z,94445
2018-04-01T02:23:22.088Z,94447
2018-04-01T02:25:50.346Z,94447
2018-04-01T02:28:18.655Z,94445
2018-04-01T02:30:46.924Z,94450
2018-04-01T02:33:15.230Z,94447
2018-04-01T02:35:44.417Z,94446
2018-04-01T02:38:13.437Z,94451
2018-04-01T02:40:41.707Z,94457
2018-04-01T02:43:10.036Z,94449
2018-04-01T02:45:38.311Z,94450
2018-04-01T02:48:06.584Z,94465
2018-04-01T02:50:34.918Z,94454
2018-04-01T02:53:03.184Z,94457
2018-04-01T02:55:31.450Z,94459
2018-04-01T02:57:59.764Z,94468
2018-04-01T03:00:28.142Z,94468
2018-04-01T03:02:56.463Z,94472
2018-04-01T03:05:25.629Z,94481
2018-04-01T03:07:53.895Z,94485
2018-04-01T03:10:22.211Z,94478
2018-04-01T03:12:50.492Z,94480
2018-04-01T03:15:19.586Z,94476
2018-04-01T03:17:47.859Z,94469
2018-04-01T03:20:16.174Z,94477
2018-04-01T03:22:44.435Z,94485
2018-04-01T03:25:12.777Z,94487
2018-04-01T03:27:41.041Z,94481
2018-04-01T03:30:09.354Z,94490
2018-04-01T03:32:37.636Z,94489
2018-04-01T03:35:05.947Z,94503
2018-04-01T03:37:34.216Z,94505
2018-04-01T03:40:02.531Z,94513
2018-04-01T03:42:30.800Z,94511
2018-04-01T03:44:59.064Z,94514
2018-04-01T03:47:27.370Z,94517
2018-04-01T03:49:55.631Z,94517
2018-04-01T03:52:23.901Z,94520
2018-04-01T03:54:52.211Z,94524
2018-04-01T03:57:20.522Z,94528
2018-04-01T03:59:48.806Z,94523
2018-04-01T04:02:17.123Z,94532
2018-04-01T04:04:46.151Z,94522
2018-04-01T04:07:14.461Z,94411
2018-04-01T04:09:42.745Z,94522
2018-04-01T04:12:11.057Z,94524
2018-04-01T04:14:39.329Z,94529
2018-04-01T04:17:07.630Z,94525
2018-04-01T04:19:35.903Z,94532
2018-04-01T04:22:04.231Z,94540
2018-04-01T04:24:32.497Z,94552
2018-04-01T04:27:00.770Z,94558
2018-04-01T04:29:29.096Z,94551
2018-04-01T04:31:57.427Z,94561
2018-04-01T04:34:25.697Z,94571
2018-04-01T04:36:53.975Z,94577
2018-04-01T04:39:22.301Z,94587
2018-04-01T04:41:50.568Z,94586
2018-04-01T04:44:19.174Z,94593
2018-04-01T04:46:47.409Z,94602
2018-04-01T04:49:15.668Z,94603
2018-04-01T04:51:43.982Z,94608
2018-04-01T04:54:12.295Z,94608
2018-04-01T04:56:40.562Z,94603
2018-04-01T04:59:08.884Z,94601
2018-04-01T05:01:37.922Z,94596
2018-04-01T05:04:06.212Z,94595
2018-04-01T05:06:34.547Z,94603
2018-04-01T05:09:02.859Z,94593
2018-04-01T05:11:31.168Z,94596
2018-04-01T05:13:59.431Z,94599
2018-04-01T05:16:27.743Z,94594
2018-04-01T05:18:56.014Z,94605
2018-04-01T05:21:24.321Z,94601
2018-04-01T05:23:52.593Z,94610
2018-04-01T05:26:20.879Z,94597
2018-04-01T05:28:49.163Z,94605
2018-04-01T05:31:17.483Z,94612
2018-04-01T05:33:45.802Z,94611
2018-04-01T05:36:14.120Z,94608
2018-04-01T05:38:42.395Z,94613
2018-04-01T05:41:10.709Z,94614
2018-04-01T05:43:38.983Z,94619
2018-04-01T05:46:07.276Z,94619
2018-04-01T05:48:35.601Z,94622
2018-04-01T05:51:04.625Z,94625
2018-04-01T05:53:32.934Z,94623
2018-04-01T05:56:01.251Z,94629
2018-04-01T05:58:30.278Z,94646
2018-04-01T06:00:58.555Z,94631
2018-04-01T06:03:26.870Z,94650
2018-04-01T06:05:55.199Z,94652
2018-04-01T06:08:23.473Z,94666
2018-04-01T06:10:51.734Z,94660
2018-04-01T06:13:20.821Z,94677
2018-04-01T06:15:49.858Z,94674
2018-04-01T06:18:18.167Z,94676
2018-04-01T06:20:46.430Z,94683
2018-04-01T06:23:14.758Z,94695
2018-04-01T06:25:43.035Z,94688
2018-04-01T06:28:11.330Z,94705
2018-04-01T06:30:39.607Z,94697
2018-04-01T06:33:07.931Z,94703
2018-04-01T06:35:36.200Z,94704
2018-04-01T06:38:04.508Z,94707
2018-04-01T06:40:32.768Z,94697
2018-04-01T06:43:01.855Z,94715
2018-04-01T06:45:30.161Z,94718
2018-04-01T06:47:59.378Z,94715
2018-04-01T06:50:28.468Z,94719
2018-04-01T06:52:57.880Z,94724
2018-04-01T06:55:26.136Z,94716
2018-04-01T06:57:54.441Z,94726
2018-04-01T07:00:22.772Z,94741
2018-04-01T07:02:51.076Z,94739
2018-04-01T07:05:19.429Z,94744
2018-04-01T07:07:48.263Z,94742
2018-04-01T07:10:16.712Z,94749
2018-04-01T07:12:44.976Z,94745
2018-04-01T07:15:13.282Z,94746
2018-04-01T07:17:42.966Z,94745
2018-04-01T07:20:11.299Z,94764
2018-04-01T07:22:39.561Z,94757
2018-04-01T07:25:07.841Z,94763
2018-04-01T07:27:36.161Z,94775
2018-04-01T07:30:04.443Z,94776
2018-04-01T07:32:32.783Z,94766
2018-04-01T07:35:01.056Z,94784
2018-04-01T07:37:30.132Z,94777
2018-04-01T07:39:58.395Z,94772
2018-04-01T07:42:26.747Z,94765
2018-04-01T07:44:55.008Z,94777
2018-04-01T07:47:23.306Z,94767
2018-04-01T07:49:51.624Z,94779
2018-04-01T07:52:19.889Z,94786
2018-04-01T07:54:48.179Z,94771
2018-04-01T07:57:17.269Z,94772
2018-04-01T07:59:45.725Z,94768
2018-04-01T08:02:14.053Z,94528
2018-04-01T08:04:42.328Z,94758
2018-04-01T08:07:11.076Z,94765
2018-04-01T08:09:40.265Z,94765
2018-04-01T08:12:08.560Z,94788
2018-04-01T08:14:36.845Z,94567
2018-04-01T08:17:05.202Z,94779
2018-04-01T08:19:33.495Z,94778
2018-04-01T08:22:01.784Z,94789
2018-04-01T08:24:30.114Z,94802
2018-04-01T08:26:58.582Z,94798
2018-04-01T08:29:26.983Z,94801
2018-04-01T08:31:55.439Z,94817
2018-04-01T08:34:23.856Z,94804
2018-04-01T08:36:52.177Z,94807
2018-04-01T08:39:20.503Z,94806
2018-04-01T08:41:48.762Z,94803
2018-04-01T08:44:17.110Z,94829
2018-04-01T08:46:45.403Z,94821
2018-04-01T08:49:13.671Z,94831
2018-04-01T08:51:41.991Z,94838
2018-04-01T08:54:10.333Z,94864
2018-04-01T08:56:38.599Z,94860
2018-04-01T08:59:07.233Z,94762
2018-04-01T09:01:36.288Z,94878
2018-04-01T09:04:04.568Z,94869
2018-04-01T09:06:32.891Z,94870
2018-04-01T09:09:02.780Z,94805
2018-04-01T09:11:31.902Z,94873
2018-04-01T09:14:00.944Z,94865
2018-04-01T09:16:29.305Z,94871
2018-04-01T09:18:58.539Z,94868
2018-04-01T09:21:27.731Z,94873
2018-04-01T09:23:55.998Z,94859
2018-04-01T09:26:24.362Z,94861
2018-04-01T09:28:52.667Z,94870
2018-04-01T09:31:21.780Z,94865
2018-04-01T09:33:51.020Z,94860
2018-04-01T09:36:19.347Z,94859
2018-04-01T09:38:47.686Z,94864
2018-04-01T09:41:16.060Z,94862
2018-04-01T09:43:44.383Z,94860
2018-04-01T09:46:13.426Z,94866
2018-04-01T09:48:41.779Z,94871
2018-04-01T09:51:10.081Z,94909
2018-04-01T09:53:38.360Z,94876
2018-04-01T09:56:06.690Z,94873
2018-04-01T09:58:35.010Z,94887
2018-04-01T10:01:04.048Z,94872
2018-04-01T10:03:33.937Z,94870
2018-04-01T10:06:02.968Z,94863
2018-04-01T10:08:32.040Z,94866
2018-04-01T10:11:01.055Z,94871
2018-04-01T10:13:30.130Z,94875
2018-04-01T10:16:00.021Z,94881
2018-04-01T10:18:30.050Z,94877
2018-04-01T10:20:59.069Z,94882
2018-04-01T10:23:28.887Z,94884
2018-04-01T10:25:57.915Z,94885
2018-04-01T10:28:26.993Z,94870
2018-04-01T10:30:56.018Z,94876
2018-04-01T10:33:25.091Z,94877
2018-04-01T10:35:54.112Z,94877
2018-04-01T10:38:23.162Z,94891
2018-04-01T10:40:52.327Z,94901
2018-04-01T10:43:22.121Z,94899
2018-04-01T10:45:51.446Z,94903
2018-04-01T10:48:23.718Z,94915
2018-04-01T10:50:52.924Z,94917
2018-04-01T10:53:22.188Z,94910
2018-04-01T10:55:50.647Z,94919
2018-04-01T10:58:18.913Z,94907
2018-04-01T11:00:47.253Z,94910
2018-04-01T11:03:15.513Z,94926
2018-04-01T11:05:44.570Z,94919
2018-04-01T11:08:12.858Z,94906
2018-04-01T11:10:41.283Z,94899
2018-04-01T11:13:09.596Z,94899
2018-04-01T11:15:37.885Z,94901
2018-04-01T11:18:06.212Z,94903
2018-04-01T11:20:34.499Z,94912
2018-04-01T11:23:02.758Z,94902
2018-04-01T11:25:31.102Z,94896
2018-04-01T11:27:59.386Z,94894
2018-04-01T11:30:27.687Z,94887
2018-04-01T11:32:56.011Z,94871
2018-04-01T11:35:24.307Z,94876
2018-04-01T11:37:52.652Z,94887
2018-04-01T11:40:20.951Z,94891
2018-04-01T11:42:49.290Z,94892
2018-04-01T11:45:20.999Z,94881
2018-04-01T11:47:49.795Z,94884
2018-04-01T11:50:18.531Z,94877
2018-04-01T11:52:46.828Z,94877
2018-04-01T11:55:15.227Z,94870
2018-04-01T11:57:43.595Z,94893
2018-04-01T12:00:12.667Z,94878
2018-04-01T12:02:41.094Z,94871
2018-04-01T12:05:09.572Z,94873
2018-04-01T12:07:37.934Z,94917
2018-04-01T12:10:06.983Z,94960
2018-04-01T12:12:35.771Z,94989
2018-04-01T12:15:04.164Z,94986
2018-04-01T12:17:32.455Z,95002
2018-04-01T12:23:08.054Z,94977
2018-04-01T12:25:37.150Z,94982
2018-04-01T12:30:39.318Z,94957
2018-04-01T12:33:15.660Z,94951
2018-04-01T12:35:53.296Z,94934
2018-04-01T12:38:22.918Z,94934
2018-04-01T12:40:51.242Z,94924
2018-04-01T12:43:19.542Z,94931
2018-04-01T12:45:47.839Z,94911
2018-04-01T12:48:16.152Z,94925
2018-04-01T12:50:44.426Z,94926
2018-04-01T12:53:12.730Z,94931
2018-04-01T12:55:41.051Z,94926
2018-04-01T12:58:09.374Z,94924
2018-04-01T13:00:37.658Z,94929
2018-04-01T13:03:06.772Z,94922
2018-04-01T13:05:35.056Z,94936
2018-04-01T13:08:03.390Z,94931
2018-04-01T13:10:32.546Z,94946
2018-04-01T13:13:00.857Z,94932
2018-04-01T13:15:29.417Z,94913
2018-04-01T13:17:57.727Z,94938
2018-04-01T13:20:26.054Z,94937
2018-04-01T13:22:55.113Z,94937
2018-04-01T13:25:24.176Z,94950
2018-04-01T13:27:52.520Z,94927
2018-04-01T13:30:20.802Z,94955
2018-04-01T13:32:49.129Z,94948
2018-04-01T13:35:17.478Z,94946
2018-04-01T13:37:45.707Z,94948
2018-04-01T13:40:14.054Z,94958
2018-04-01T13:42:42.320Z,94949
2018-04-01T13:45:10.623Z,94946
2018-04-01T13:47:39.738Z,94938
2018-04-01T13:50:08.140Z,94961
2018-04-01T13:52:36.424Z,94950
2018-04-01T13:55:04.709Z,94946
2018-04-01T13:57:33.031Z,94938
2018-04-01T14:00:02.137Z,94952
2018-04-01T14:02:31.175Z,94950
2018-04-01T14:04:59.501Z,94958
2018-04-01T14:07:28.543Z,94976
2018-04-01T14:09:56.863Z,94982
2018-04-01T14:12:25.926Z,95020
2018-04-01T14:14:54.241Z,95024
2018-04-01T14:17:23.307Z,95045
2018-04-01T14:19:51.640Z,95028
2018-04-01T14:22:19.912Z,95032
2018-04-01T14:24:48.175Z,95038
2018-04-01T14:27:17.003Z,95033
2018-04-01T14:29:45.280Z,95031
2018-04-01T14:32:14.648Z,95029
2018-04-01T14:34:42.964Z,95028
2018-04-01T14:37:11.250Z,95026
2018-04-01T14:39:39.559Z,95033
2018-04-01T14:42:07.879Z,95042
2018-04-01T14:44:36.175Z,95030
2018-04-01T14:47:04.438Z,95028
2018-04-01T14:49:33.621Z,95019
2018-04-01T14:52:01.930Z,94999
2018-04-01T14:54:30.275Z,95022
2018-04-01T14:56:58.538Z,95038
2018-04-01T14:59:26.858Z,95021
2018-04-01T15:01:55.152Z,95027
2018-04-01T15:04:24.226Z,95007
2018-04-01T15:06:52.524Z,95013
2018-04-01T15:09:22.569Z,95019
2018-04-01T15:11:50.849Z,95012
2018-04-01T15:14:19.250Z,95008
2018-04-01T15:16:47.487Z,95006
2018-04-01T15:19:15.814Z,95015
2018-04-01T15:21:44.094Z,94993
2018-04-01T15:24:12.439Z,95028
2018-04-01T15:26:40.737Z,95007
2018-04-01T15:29:10.586Z,95006
2018-04-01T15:31:40.059Z,95005
2018-04-01T15:34:08.451Z,95013
2018-04-01T15:36:39.703Z,95011
2018-04-01T15:39:08.659Z,95018
2018-04-01T15:41:37.592Z,95020
2018-04-01T15:44:05.940Z,95004
2018-04-01T15:46:34.235Z,95020
2018-04-01T15:49:03.314Z,95034
2018-04-01T15:51:31.678Z,95033
2018-04-01T15:54:00.136Z,95038
2018-04-01T15:56:28.422Z,95041
2018-04-01T15:58:57.319Z,95043
2018-04-01T16:01:25.692Z,95042
2018-04-01T16:03:54.083Z,95060
2018-04-01T16:06:22.386Z,95054
2018-04-01T16:08:51.436Z,95053
2018-04-01T16:11:19.712Z,95056
2018-04-01T16:13:48.190Z,95050
2018-04-01T16:16:17.339Z,95057
2018-04-01T16:18:46.383Z,95049
2018-04-01T16:21:14.848Z,95056
2018-04-01T16:23:44.200Z,95064
2018-04-01T16:26:13.228Z,95059
2018-04-01T16:28:41.967Z,95064
2018-04-01T16:31:13.228Z,95069
2018-04-01T16:33:41.710Z,95074
2018-04-01T16:36:10.495Z,95089
2018-04-01T16:38:38.815Z,95093
2018-04-01T16:41:07.494Z,95099
2018-04-01T16:43:37.035Z,95100
2018-04-01T16:46:05.959Z,95110
2018-04-01T16:48:34.401Z,95119
2018-04-01T16:51:03.656Z,95128
2018-04-01T16:53:34.430Z,95128
2018-04-01T16:56:03.077Z,95137
2018-04-01T16:58:31.376Z,95152
2018-04-01T17:00:59.818Z,95150
2018-04-01T17:03:28.717Z,95147
2018-04-01T17:05:57.543Z,95157
2018-04-01T17:08:25.879Z,95154
2018-04-01T17:10:55.859Z,95154
2018-04-01T17:13:24.607Z,95159
2018-04-01T17:15:53.005Z,95166
2018-04-01T17:18:21.286Z,95156
2018-04-01T17:20:49.579Z,95166
2018-04-01T17:23:17.859Z,95174
2018-04-01T17:25:46.170Z,95153
2018-04-01T17:28:15.202Z,95161
2018-04-01T17:30:43.522Z,95165
2018-04-01T17:33:12.598Z,95158
2018-04-01T17:35:40.867Z,95166
2018-04-01T17:38:09.185Z,95163
2018-04-01T17:40:38.270Z,95159
2018-04-01T17:43:11.371Z,95171
2018-04-01T17:45:40.454Z,95176
2018-04-01T17:48:08.745Z,95170
2018-04-01T17:50:37.055Z,95172
2018-04-01T17:53:05.356Z,95174
2018-04-01T17:55:33.623Z,95171
2018-04-01T17:58:01.972Z,95174
2018-04-01T18:00:30.296Z,95175
2018-04-01T18:02:58.566Z,95175
2018-04-01T18:05:26.896Z,95188
2018-04-01T18:08:06.755Z,95176
2018-04-01T18:10:35.060Z,95177
2018-04-01T18:13:03.439Z,95177
2018-04-01T18:15:31.757Z,95181
2018-04-01T18:18:00.095Z,95187
2018-04-01T18:20:28.591Z,95202
2018-04-01T18:23:00.601Z,95210
2018-04-01T18:25:28.933Z,95216
2018-04-01T18:27:58.004Z,95223
2018-04-01T18:30:26.345Z,95221
2018-04-01T18:32:54.643Z,95226
2018-04-01T18:35:22.972Z,95232
2018-04-01T18:37:51.271Z,95236
2018-04-01T18:40:19.600Z,95244
2018-04-01T18:42:47.883Z,95249
2018-04-01T18:45:16.959Z,95252
2018-04-01T18:47:45.295Z,95264
2018-04-01T18:50:13.581Z,95265
2018-04-01T18:52:41.903Z,95280
2018-04-01T18:55:10.944Z,95278
2018-04-01T18:57:39.343Z,95279
2018-04-01T19:00:07.709Z,95289
2018-04-01T19:02:36.020Z,95293
2018-04-01T19:05:05.081Z,95293
2018-04-01T19:07:33.418Z,95310
2018-04-01T19:10:01.750Z,95318
2018-04-01T19:12:30.031Z,95313
2018-04-01T19:14:58.432Z,95312
2018-04-01T19:17:27.520Z,95317
2018-04-01T19:19:56.600Z,95319
2018-04-01T19:22:25.635Z,95327
2018-04-01T19:24:54.709Z,95335
2018-04-01T19:27:24.564Z,95339
2018-04-01T19:29:53.599Z,95336
2018-04-01T19:32:22.741Z,95341
2018-04-01T19:34:51.897Z,95344
2018-04-01T19:37:21.162Z,95339
2018-04-01T19:39:50.332Z,95349
2018-04-01T19:42:19.484Z,95361
2018-04-01T19:44:48.672Z,95358
2018-04-01T19:47:17.743Z,95379
2018-04-01T19:49:46.837Z,95371
2018-04-01T19:52:15.896Z,95384
2018-04-01T19:54:45.144Z,95391
2018-04-01T19:57:14.376Z,95400
2018-04-01T19:59:44.198Z,95385
2018-04-01T20:02:13.237Z,95394
2018-04-01T20:04:42.315Z,95391
2018-04-01T20:07:11.339Z,95375
2018-04-01T20:09:40.932Z,95386
2018-04-01T20:12:13.644Z,95387
2018-04-01T20:14:45.558Z,95389
2018-04-01T20:17:14.659Z,95395
2018-04-01T20:19:50.108Z,95401
2018-04-01T20:22:19.144Z,95397
2018-04-01T20:24:48.263Z,95399
2018-04-01T20:27:17.384Z,95397
2018-04-01T20:29:46.400Z,95404
2018-04-01T20:32:15.797Z,95396
2018-04-01T20:34:44.991Z,95408
2018-04-01T20:37:14.252Z,95407
2018-04-01T20:39:43.329Z,95398
2018-04-01T20:42:12.369Z,95411
2018-04-01T20:44:41.439Z,95431
2018-04-01T20:47:11.299Z,95418
2018-04-01T20:49:42.896Z,95411
2018-04-01T20:52:11.927Z,95419
2018-04-01T20:54:41.510Z,95426
2018-04-01T20:57:10.554Z,95421
2018-04-01T20:59:40.382Z,95415
2018-04-01T21:02:09.496Z,95423
2018-04-01T21:04:38.579Z,95424
2018-04-01T21:07:07.619Z,95422
2018-04-01T21:09:36.654Z,95433
2018-04-01T21:12:05.726Z,95427
2018-04-01T21:14:34.751Z,95428
2018-04-01T21:17:07.131Z,95426
2018-04-01T21:19:36.229Z,95415
2018-04-01T21:22:05.331Z,95421
2018-04-01T21:24:34.349Z,95423
2018-04-01T21:27:03.409Z,95431
2018-04-01T21:29:32.538Z,95432
2018-04-01T21:32:01.519Z,95423
2018-04-01T21:34:30.594Z,95433
2018-04-01T21:36:59.652Z,95429
2018-04-01T21:39:29.459Z,95429
2018-04-01T21:41:58.545Z,95434
2018-04-01T21:44:27.577Z,95437
2018-04-01T21:46:56.593Z,95440
2018-04-01T21:49:27.405Z,95441
2018-04-01T21:51:56.596Z,95429
2018-04-01T21:54:25.716Z,95428
2018-04-01T21:56:55.534Z,95435
2018-04-01T21:59:24.684Z,95443
2018-04-01T22:01:54.486Z,95443
2018-04-01T22:04:23.892Z,95450
2018-04-01T22:06:54.251Z,95449
2018-04-01T22:09:23.832Z,95436
2018-04-01T22:11:53.365Z,95439
2018-04-01T22:14:22.523Z,95440
2018-04-01T22:16:51.751Z,95356
2018-04-01T22:19:21.197Z,95431
2018-04-01T22:21:50.282Z,95429
2018-04-01T22:24:19.607Z,95436
2018-04-01T22:26:48.690Z,95440
2018-04-01T22:29:18.961Z,95434
2018-04-01T22:31:49.151Z,95436
2018-04-01T22:34:19.016Z,95433
2018-04-01T22:36:48.290Z,95426
2018-04-01T22:39:18.513Z,95437
2018-04-01T22:41:47.679Z,95430
2018-04-01T22:44:17.259Z,95430
2018-04-01T22:46:46.407Z,95433
2018-04-01T22:49:16.239Z,95433
2018-04-01T22:51:46.267Z,95440
2018-04-01T22:54:15.322Z,95435
2018-04-01T22:56:44.362Z,95432
2018-04-01T22:59:13.415Z,95434
2018-04-01T23:01:42.430Z,95437
2018-04-01T23:04:11.509Z,95442
2018-04-01T23:06:40.737Z,95435
2018-04-01T23:09:10.989Z,95429
2018-04-01T23:11:40.827Z,95437
2018-04-01T23:14:10.632Z,95431
2018-04-01T23:16:40.072Z,95434
2018-04-01T23:19:11.075Z,95445
2018-04-01T23:21:40.082Z,95431
2018-04-01T23:24:09.198Z,95433
2018-04-01T23:26:38.675Z,95431
2018-04-01T23:29:07.684Z,95436
2018-04-01T23:31:36.889Z,95434
2018-04-01T23:34:06.871Z,95432
2018-04-01T23:36:37.265Z,95432
2018-04-01T23:39:07.651Z,95441
2018-04-01T23:41:37.042Z,95433
2018-04-01T23:44:07.076Z,95430
2018-04-01T23:46:36.297Z,95435
2018-04-01T23:49:05.306Z,95434
2018-04-01T23:51:34.693Z,95447
2018-04-01T23:54:03.834Z,95444
2018-04-01T23:56:33.154Z,95436
2018-04-01T23:59:03.970Z,95444
